Time;durP1;ratioP1;P1;durP2;ratioP2;P2;SDS_P1;SDS_P2;PMS_P1;PMS_P2;Temp;Humidity;BMP_temperature;BMP_pressure;BME280_temperature;BME280_humidity;BME280_pressure;Samples;Min_cycle;Max_cycle;Signal;HPM_P1;HPM_P2
2022/01/02 00:00:08;;;;;;;10.32;5.55;;;11.50;99.90;;;;;;5013704;28;20133;-78
2022/01/02 00:02:35;;;;;;;10.48;5.35;;;11.50;99.90;;;;;;5013536;28;20034;-78
2022/01/02 00:05:04;;;;;;;12.70;6.05;;;11.40;99.90;;;;;;5013092;28;20540;-78
2022/01/02 00:07:33;;;;;;;10.10;5.32;;;11.40;99.90;;;;;;5013834;28;20030;-78
2022/01/02 00:10:03;;;;;;;15.40;6.35;;;11.40;99.90;;;;;;5013849;28;20388;-78
2022/01/02 00:12:32;;;;;;;13.90;5.90;;;11.40;99.90;;;;;;5013328;28;20038;-78
2022/01/02 00:14:58;;;;;;;18.08;6.75;;;11.40;99.90;;;;;;5013569;28;20029;-78
2022/01/02 00:17:24;;;;;;;11.07;6.38;;;11.30;99.90;;;;;;5013608;28;20714;-78
2022/01/02 00:19:56;;;;;;;15.05;6.47;;;11.30;99.90;;;;;;4997339;28;20026;-78
2022/01/02 00:22:34;;;;;;;11.05;6.35;;;11.30;99.90;;;;;;5013317;28;20444;-78
2022/01/02 00:25:00;;;;;;;13.80;5.97;;;11.20;99.90;;;;;;5013646;28;20169;-78
2022/01/02 00:27:28;;;;;;;15.10;6.32;;;11.20;99.90;;;;;;5013641;28;20077;-78
2022/01/02 00:29:55;;;;;;;13.43;5.03;;;11.30;99.90;;;;;;5013496;28;20025;-78
2022/01/02 00:32:21;;;;;;;12.95;5.30;;;11.30;99.90;;;;;;5080645;28;20432;-78
2022/01/02 00:34:51;;;;;;;10.20;5.00;;;11.40;99.90;;;;;;5095393;28;20045;-78
2022/01/02 00:37:17;;;;;;;10.63;4.95;;;11.40;99.90;;;;;;5095241;28;20385;-77
2022/01/02 00:39:43;;;;;;;15.63;5.63;;;11.40;99.90;;;;;;5076167;28;20029;-78
2022/01/02 00:42:10;;;;;;;12.23;5.07;;;11.40;99.90;;;;;;5074952;28;20024;-77
2022/01/02 00:44:52;;;;;;;9.02;5.20;;;11.40;99.90;;;;;;5075033;28;20021;-77
2022/01/02 00:47:21;;;;;;;;;;;11.40;99.90;;;;;;5075458;28;20161;-78
2022/01/02 00:50:03;;;;;;;11.10;5.18;;;11.40;99.90;;;;;;5075049;28;19904;-78
2022/01/02 00:52:29;;;;;;;13.80;5.82;;;11.40;99.90;;;;;;5074683;28;20066;-77
2022/01/02 00:54:56;;;;;;;11.52;5.43;;;11.30;99.90;;;;;;5074698;28;20474;-77
2022/01/02 00:57:31;;;;;;;12.80;5.60;;;11.40;99.90;;;;;;5074510;28;20128;-77
2022/01/02 01:00:09;;;;;;;13.90;5.20;;;11.30;99.90;;;;;;5074500;28;20035;-77
2022/01/02 01:02:40;;;;;;;16.92;6.20;;;11.30;99.90;;;;;;5066590;28;20025;-77
2022/01/02 01:05:07;;;;;;;13.65;6.20;;;11.30;99.90;;;;;;5074566;28;20027;-77
2022/01/02 01:07:34;;;;;;;14.70;6.07;;;11.30;99.90;;;;;;5074297;28;20033;-77
2022/01/02 01:10:03;;;;;;;17.05;6.07;;;11.30;99.90;;;;;;5083157;28;20074;-77
2022/01/02 01:12:29;;;;;;;12.48;6.35;;;11.30;99.90;;;;;;5094471;28;20027;-78
2022/01/02 01:14:55;;;;;;;14.45;5.95;;;11.30;99.90;;;;;;5094193;28;20053;-77
2022/01/02 01:17:21;;;;;;;13.05;5.50;;;11.30;99.90;;;;;;5094260;28;20069;-77
2022/01/02 01:19:47;;;;;;;15.65;7.00;;;11.30;99.90;;;;;;5094121;28;20107;-77
2022/01/02 01:22:13;;;;;;;13.57;5.57;;;11.30;99.90;;;;;;5093981;28;20024;-77
2022/01/02 01:24:38;;;;;;;18.25;5.90;;;11.30;99.90;;;;;;5093960;28;20373;-77
2022/01/02 01:27:07;;;;;;;11.88;5.03;;;11.40;99.90;;;;;;5094040;28;20020;-77
2022/01/02 01:29:34;;;;;;;18.80;6.00;;;11.40;99.90;;;;;;5093526;28;20080;-77
2022/01/02 01:32:03;;;;;;;17.38;5.60;;;11.30;99.90;;;;;;5093425;28;20029;-77
2022/01/02 01:34:29;;;;;;;13.93;6.28;;;11.40;99.90;;;;;;5092591;28;20036;-77
2022/01/02 01:36:55;;;;;;;19.77;5.93;;;11.30;99.90;;;;;;5092423;28;20081;-77
2022/01/02 01:39:20;;;;;;;10.35;5.47;;;11.40;99.90;;;;;;5077219;28;20078;-76
2022/01/02 01:41:48;;;;;;;17.40;6.10;;;11.40;99.90;;;;;;5073279;28;20024;-77
2022/01/02 01:46:40;;;;;;;10.95;5.45;;;11.40;99.90;;;;;;5073870;28;20025;-77
2022/01/02 01:49:22;;;;;;;21.00;5.93;;;11.50;99.90;;;;;;5073349;28;20425;-77
2022/01/02 01:51:48;;;;;;;11.30;5.95;;;11.50;99.90;;;;;;5072286;28;20086;-77
2022/01/02 01:54:14;;;;;;;18.17;8.43;;;11.50;99.90;;;;;;5073060;28;20071;-77
2022/01/02 01:56:40;;;;;;;21.83;8.23;;;11.50;99.90;;;;;;5055331;28;20028;-77
2022/01/02 01:59:06;;;;;;;12.48;6.00;;;11.50;99.90;;;;;;5073751;28;20373;-77
2022/01/02 02:01:32;;;;;;;16.42;5.38;;;11.50;99.90;;;;;;5073344;28;20143;-77
2022/01/02 02:03:58;;;;;;;16.67;5.07;;;11.60;99.90;;;;;;5073109;28;20498;-78
2022/01/02 02:06:24;;;;;;;16.77;5.43;;;11.60;99.90;;;;;;5073146;28;20081;-77
2022/01/02 02:08:52;;;;;;;16.17;5.00;;;11.50;99.90;;;;;;5073013;28;20513;-77
2022/01/02 02:11:20;;;;;;;14.48;5.20;;;11.50;99.90;;;;;;5092755;28;20020;-77
2022/01/02 02:13:46;;;;;;;15.95;5.70;;;11.50;99.90;;;;;;5093444;28;20020;-77
2022/01/02 02:16:12;;;;;;;17.00;6.28;;;11.60;99.90;;;;;;5093422;28;20020;-77
2022/01/02 02:18:38;;;;;;;16.80;5.78;;;11.50;99.90;;;;;;5093505;28;20055;-77
2022/01/02 02:21:04;;;;;;;13.95;4.78;;;11.60;99.90;;;;;;5093376;28;20404;-77
2022/01/02 02:23:30;;;;;;;20.52;5.38;;;11.60;99.90;;;;;;5092921;28;20028;-77
2022/01/02 02:25:56;;;;;;;16.13;4.82;;;11.60;99.90;;;;;;5093020;28;20374;-77
2022/01/02 02:28:26;;;;;;;14.85;4.80;;;11.60;99.90;;;;;;5075137;28;20044;-77
2022/01/02 02:30:52;;;;;;;12.70;5.05;;;11.70;99.90;;;;;;5074677;28;20028;-77
2022/01/02 02:33:19;;;;;;;12.82;5.43;;;11.70;99.90;;;;;;5092990;28;20051;-77
2022/01/02 02:35:46;;;;;;;11.40;4.07;;;11.70;99.90;;;;;;5093170;28;20034;-77
2022/01/02 02:38:14;;;;;;;15.30;4.63;;;11.80;99.90;;;;;;5081003;28;20025;-77
2022/01/02 02:40:41;;;;;;;17.25;4.70;;;11.90;99.90;;;;;;5072415;28;20032;-77
2022/01/02 02:43:24;;;;;;;19.52;5.30;;;11.90;99.90;;;;;;5072756;28;20383;-77
2022/01/02 02:51:34;;;;;;;13.02;4.00;;;12.20;99.90;;;;;;5072863;28;20075;-77
2022/01/02 02:54:00;;;;;;;15.90;4.03;;;12.20;99.90;;;;;;5072636;28;20074;-77
2022/01/02 02:56:30;;;;;;;14.23;4.10;;;12.20;99.90;;;;;;5072954;28;20037;-78
2022/01/02 02:58:57;;;;;;;12.52;3.47;;;12.20;99.90;;;;;;5072897;28;20029;-79
2022/01/02 03:01:25;;;;;;;11.52;3.55;;;12.20;99.90;;;;;;5072684;28;20540;-77
2022/01/02 03:03:51;;;;;;;10.57;3.75;;;12.30;99.90;;;;;;5072432;28;20059;-78
2022/01/02 03:06:18;;;;;;;14.20;3.40;;;12.40;99.90;;;;;;5072467;28;20462;-78
2022/01/02 03:08:45;;;;;;;15.48;3.85;;;12.40;99.90;;;;;;5072850;28;20020;-80
2022/01/02 03:11:17;;;;;;;14.98;3.90;;;12.50;99.90;;;;;;5073081;28;20363;-77
2022/01/02 03:13:43;;;;;;;;;;;;;;;;;;5072911;28;20104;-77
2022/01/02 03:16:09;;;;;;;15.43;3.30;;;;;;;;;;5072597;28;19962;-79
2022/01/02 03:18:36;;;;;;;11.73;3.08;;;;;;;;;;5072448;28;20108;-80
2022/01/02 03:21:02;;;;;;;15.23;3.75;;;;;;;;;;5072462;28;20534;-78
2022/01/02 03:23:28;;;;;;;9.40;3.45;;;;;;;;;;5088575;28;20116;-80
2022/01/02 03:25:54;;;;;;;13.32;3.75;;;;;;;;;;5092483;28;20078;-78
2022/01/02 03:28:20;;;;;;;10.68;3.60;;;;;;;;;;5092519;28;20016;-80
2022/01/02 03:30:46;;;;;;;9.73;3.30;;;;;;;;;;5092773;28;20020;-79
2022/01/02 03:33:12;;;;;;;15.15;3.58;;;;;;;;;;5092428;28;20067;-80
2022/01/02 03:35:38;;;;;;;14.88;3.53;;;;;;;;;;5092587;28;20032;-79
2022/01/02 03:38:04;;;;;;;13.75;3.47;;;;;;;;;;5070539;28;20138;-79
2022/01/02 03:40:30;;;;;;;13.32;3.47;;;;;;;;;;5071996;28;20158;-80
2022/01/02 03:42:56;;;;;;;17.88;4.03;;;;;;;;;;5072597;28;20029;-80
2022/01/02 03:45:22;;;;;;;18.75;4.25;;;12.50;99.90;;;;;;5072098;28;20024;-80
2022/01/02 03:47:48;;;;;;;9.50;3.28;;;12.70;99.90;;;;;;5072123;28;20027;-80
2022/01/02 03:50:14;;;;;;;13.82;3.65;;;12.80;99.90;;;;;;5072275;28;20020;-79
2022/01/02 03:52:40;;;;;;;16.95;3.30;;;12.70;99.90;;;;;;5072438;28;20029;-78
2022/01/02 03:55:06;;;;;;;10.25;2.67;;;12.70;99.90;;;;;;5072342;28;20087;-78
2022/01/02 03:57:32;;;;;;;17.95;4.15;;;12.70;99.90;;;;;;5074038;28;20032;-80
2022/01/02 03:59:58;;;;;;;9.40;2.67;;;;;;;;;;5075641;28;20033;-79
2022/01/02 04:02:24;;;;;;;14.52;3.88;;;;;;;;;;5075602;28;20035;-80
2022/01/02 04:04:50;;;;;;;14.75;3.00;;;;;;;;;;5075583;28;20025;-78
2022/01/02 04:07:16;;;;;;;14.00;2.90;;;;;;;;;;5075748;28;20021;-78
2022/01/02 04:09:42;;;;;;;11.95;3.00;;;;;;;;;;5081843;28;20499;-80
2022/01/02 04:12:08;;;;;;;9.10;2.60;;;12.90;99.90;;;;;;5095799;28;20114;-80
2022/01/02 04:14:34;;;;;;;14.00;2.60;;;12.90;99.90;;;;;;5096129;28;20102;-80
2022/01/02 04:17:00;;;;;;;27.77;4.78;;;12.90;99.90;;;;;;5096096;28;20024;-80
2022/01/02 04:19:25;;;;;;;10.07;2.80;;;13.00;99.90;;;;;;5095935;28;20020;-80
2022/01/02 04:21:51;;;;;;;11.73;2.20;;;13.00;99.90;;;;;;5095926;28;20359;-80
2022/01/02 04:24:16;;;;;;;11.30;2.30;;;13.00;99.90;;;;;;5095451;28;20028;-80
2022/01/02 04:26:43;;;;;;;13.43;2.75;;;13.10;99.90;;;;;;5095990;28;20028;-80
2022/01/02 04:29:09;;;;;;;8.90;2.78;;;13.00;99.90;;;;;;5095559;28;20378;-80
2022/01/02 04:31:36;;;;;;;10.63;2.90;;;13.00;99.90;;;;;;5095387;28;20070;-80
2022/01/02 04:34:02;;;;;;;14.85;3.58;;;13.10;99.90;;;;;;5095734;28;20075;-80
2022/01/02 04:36:27;;;;;;;14.05;3.17;;;13.10;99.90;;;;;;5095387;28;20020;-80
2022/01/02 04:38:53;;;;;;;12.18;2.50;;;13.00;99.90;;;;;;5095244;28;20450;-80
2022/01/02 04:41:18;;;;;;;17.90;4.15;;;13.00;99.90;;;;;;5095627;28;20442;-80
2022/01/02 04:43:44;;;;;;;12.90;3.28;;;12.90;99.90;;;;;;5095166;28;20367;-79
2022/01/02 04:46:10;;;;;;;13.63;3.00;;;12.80;99.90;;;;;;5076888;28;20047;-77
2022/01/02 04:48:35;;;;;;;18.73;3.75;;;12.70;99.90;;;;;;5095034;28;20024;-78
2022/01/02 04:51:01;;;;;;;16.02;3.20;;;12.70;99.90;;;;;;5095333;28;20039;-80
2022/01/02 04:53:26;;;;;;;15.38;3.75;;;12.60;99.90;;;;;;5095108;28;20103;-79
2022/01/02 04:55:52;;;;;;;10.90;3.25;;;12.60;99.90;;;;;;5094972;28;20024;-77
2022/01/02 04:58:18;;;;;;;16.20;3.13;;;;;;;;;;5094471;28;20032;-76
2022/01/02 05:00:44;;;;;;;12.48;3.25;;;;;;;;;;5094609;28;20040;-80
2022/01/02 05:03:10;;;;;;;11.98;4.15;;;;;;;;;;5094616;28;20070;-79
2022/01/02 05:05:36;;;;;;;12.75;3.28;;;12.40;99.90;;;;;;5094774;28;20020;-79
2022/01/02 05:08:02;;;;;;;14.27;3.22;;;12.50;99.90;;;;;;5093654;28;20024;-77
2022/01/02 05:10:28;;;;;;;10.02;3.60;;;12.40;99.90;;;;;;5094300;28;20027;-77
2022/01/02 05:12:53;;;;;;;14.48;4.18;;;12.40;99.90;;;;;;5094243;28;20020;-77
2022/01/02 05:15:19;;;;;;;14.68;4.30;;;12.30;99.90;;;;;;5075854;28;20414;-77
2022/01/02 05:17:44;;;;;;;17.65;3.38;;;12.30;99.90;;;;;;5076281;28;20078;-77
2022/01/02 05:20:10;;;;;;;9.43;3.15;;;12.40;99.90;;;;;;5075539;28;20414;-77
2022/01/02 05:22:36;;;;;;;19.83;4.00;;;12.20;99.90;;;;;;5094421;28;20024;-77
2022/01/02 05:25:03;;;;;;;15.15;3.40;;;12.20;99.90;;;;;;5094257;28;20477;-78
2022/01/02 05:27:28;;;;;;;13.07;3.67;;;12.20;99.90;;;;;;5075575;28;20028;-77
2022/01/02 05:29:54;;;;;;;12.98;4.30;;;12.30;99.90;;;;;;5094302;28;20101;-79
2022/01/02 05:32:19;;;;;;;17.77;4.43;;;12.20;99.90;;;;;;5094226;28;20131;-78
2022/01/02 05:34:45;;;;;;;14.52;4.18;;;12.10;99.90;;;;;;5075840;28;20023;-77
2022/01/02 05:37:11;;;;;;;15.73;3.83;;;12.20;99.90;;;;;;5093525;28;20039;-77
2022/01/02 05:39:36;;;;;;;14.85;4.47;;;12.10;99.90;;;;;;5093642;28;20103;-77
2022/01/02 05:42:03;;;;;;;14.80;4.85;;;12.10;99.90;;;;;;5093935;28;20020;-80
2022/01/02 05:44:30;;;;;;;14.57;4.05;;;12.00;99.90;;;;;;5093377;28;20024;-77
2022/01/02 05:46:56;;;;;;;12.68;3.58;;;12.10;99.90;;;;;;5094006;28;20383;-77
2022/01/02 05:49:22;;;;;;;15.35;3.58;;;12.10;99.90;;;;;;5093336;28;20032;-77
2022/01/02 05:51:47;;;;;;;14.23;4.18;;;12.10;99.90;;;;;;5093456;28;20077;-77
2022/01/02 05:54:13;;;;;;;11.13;4.28;;;12.10;99.90;;;;;;5093554;28;20450;-77
2022/01/02 05:56:39;;;;;;;9.98;4.20;;;12.10;99.90;;;;;;5093617;28;20094;-79
2022/01/02 05:59:04;;;;;;;10.00;3.72;;;12.00;99.90;;;;;;5093736;28;20466;-77
2022/01/02 06:01:30;;;;;;;13.70;3.90;;;12.10;99.90;;;;;;5093316;28;20098;-77
2022/01/02 06:03:56;;;;;;;11.52;4.05;;;12.00;99.90;;;;;;5093305;28;20048;-77
2022/01/02 06:06:22;;;;;;;11.80;4.20;;;12.00;99.90;;;;;;5074984;28;20405;-76
2022/01/02 06:08:47;;;;;;;11.45;3.78;;;12.00;99.90;;;;;;5092893;28;20020;-77
2022/01/02 06:11:13;;;;;;;8.15;3.63;;;12.00;99.90;;;;;;5093113;28;20030;-77
2022/01/02 06:13:40;;;;;;;15.05;3.85;;;11.90;99.90;;;;;;5093102;28;20031;-77
2022/01/02 06:16:07;;;;;;;12.30;3.45;;;11.90;99.90;;;;;;5093449;28;20031;-77
2022/01/02 06:18:32;;;;;;;11.95;4.10;;;11.90;99.90;;;;;;5093211;28;20020;-77
2022/01/02 06:20:58;;;;;;;12.43;3.30;;;11.90;99.90;;;;;;5093292;28;20024;-77
2022/01/02 06:23:23;;;;;;;12.73;3.92;;;11.90;99.90;;;;;;5092972;28;20445;-77
2022/01/02 06:25:49;;;;;;;10.10;3.83;;;11.90;99.90;;;;;;5093017;28;20016;-77
2022/01/02 06:28:15;;;;;;;9.10;3.42;;;11.90;99.90;;;;;;5092995;28;20040;-77
2022/01/02 06:30:40;;;;;;;12.02;3.38;;;11.80;99.90;;;;;;5092993;28;20491;-77
2022/01/02 06:33:06;;;;;;;12.40;3.38;;;11.90;99.90;;;;;;5092872;28;20044;-77
2022/01/02 06:35:33;;;;;;;10.82;3.50;;;;;;;;;;5092893;28;20043;-77
2022/01/02 06:38:00;;;;;;;13.00;4.07;;;;;;;;;;5092593;28;20047;-77
2022/01/02 06:40:26;;;;;;;14.00;3.63;;;;;;;;;;5092448;28;20519;-77
2022/01/02 06:42:53;;;;;;;11.02;3.38;;;;;;;;;;5092514;28;20813;-76
2022/01/02 06:45:19;;;;;;;8.73;3.30;;;;;;;;;;5092552;28;20028;-76
2022/01/02 06:47:45;;;;;;;10.00;3.60;;;;;;;;;;5092566;28;20529;-77
2022/01/02 06:50:12;;;;;;;10.73;3.80;;;;;;;;;;5092472;28;20024;-77
2022/01/02 06:52:38;;;;;;;11.52;4.50;;;;;;;;;;5092381;28;20020;-76
2022/01/02 06:55:04;;;;;;;12.50;3.50;;;;;;;;;;5092348;28;20103;-76
2022/01/02 06:57:30;;;;;;;9.60;3.38;;;;;;;;;;5092472;28;20424;-77
2022/01/02 06:59:56;;;;;;;9.15;3.50;;;;;;;;;;5092656;28;20404;-77
2022/01/02 07:02:22;;;;;;;13.23;3.50;;;;;;;;;;5100195;28;20028;-77
2022/01/02 07:04:48;;;;;;;8.52;3.28;;;;;;;;;;5112421;28;20100;-77
2022/01/02 07:07:14;;;;;;;11.55;3.78;;;;;;;;;;5112622;28;20030;-77
2022/01/02 07:09:40;;;;;;;15.90;3.55;;;;;;;;;;5110050;28;20020;-77
2022/01/02 07:12:06;;;;;;;12.00;3.97;;;;;;;;;;5112368;28;20414;-77
2022/01/02 07:14:32;;;;;;;13.25;3.30;;;;;;;;;;5104103;28;20024;-77
2022/01/02 07:16:59;;;;;;;10.50;3.50;;;;;;;;;;5103852;28;20554;-77
2022/01/02 07:19:25;;;;;;;13.02;3.90;;;;;;;;;;5103845;28;20028;-77
2022/01/02 07:21:52;;;;;;;14.82;4.15;;;;;;;;;;5103308;28;20024;-77
2022/01/02 07:24:18;;;;;;;12.52;3.30;;;;;;;;;;5083634;28;20119;-77
2022/01/02 07:26:44;;;;;;;11.73;3.45;;;;;;;;;;5098414;28;20145;-77
2022/01/02 07:29:11;;;;;;;14.93;4.22;;;;;;;;;;5097600;28;20016;-77
2022/01/02 07:31:37;;;;;;;12.90;4.40;;;;;;;;;;5081351;28;20102;-77
2022/01/02 07:34:03;;;;;;;9.48;3.83;;;;;;;;;;5102354;28;20051;-77
2022/01/02 07:36:29;;;;;;;9.65;4.15;;;;;;;;;;5104372;28;20020;-77
2022/01/02 07:38:55;;;;;;;11.02;3.55;;;;;;;;;;5098261;28;20537;-77
2022/01/02 07:41:21;;;;;;;12.98;3.83;;;;;;;;;;5104170;28;20101;-77
2022/01/02 07:43:47;;;;;;;11.82;4.35;;;;;;;;;;5106735;28;20027;-77
2022/01/02 07:46:13;;;;;;;15.18;3.95;;;;;;;;;;5109709;28;20027;-77
2022/01/02 07:48:39;;;;;;;13.13;3.33;;;;;;;;;;5111632;28;20030;-77
2022/01/02 07:51:05;;;;;;;12.13;4.00;;;;;;;;;;5107696;28;20020;-77
2022/01/02 07:53:31;;;;;;;14.60;4.15;;;;;;;;;;5109674;28;20036;-77
2022/01/02 07:55:58;;;;;;;14.02;3.17;;;;;;;;;;5085316;28;20012;-77
2022/01/02 07:58:24;;;;;;;9.90;3.65;;;;;;;;;;5106502;28;20099;-77
2022/01/02 08:00:50;;;;;;;12.68;3.67;;;;;;;;;;5106971;28;20024;-77
2022/01/02 08:03:17;;;;;;;11.90;4.05;;;;;;;;;;5104951;28;20020;-77
2022/01/02 08:05:43;;;;;;;11.50;4.30;;;;;;;;;;5096705;28;20103;-77
2022/01/02 08:08:09;;;;;;;15.82;4.35;;;;;;;;;;5106795;28;20020;-77
2022/01/02 08:10:35;;;;;;;15.90;5.28;;;;;;;;;;5100347;28;20043;-77
2022/01/02 08:13:02;;;;;;;12.13;4.63;;;;;;;;;;5104329;28;20024;-77
2022/01/02 08:15:28;;;;;;;13.20;4.60;;;;;;;;;;5107270;28;20381;-77
2022/01/02 08:17:54;;;;;;;9.95;4.07;;;11.50;99.90;;;;;;5110083;28;20028;-77
2022/01/02 08:20:19;;;;;;;13.30;4.25;;;11.50;99.90;;;;;;5109874;28;20058;-77
2022/01/02 08:22:45;;;;;;;10.50;3.72;;;11.50;99.90;;;;;;5106944;28;20462;-77
2022/01/02 08:25:10;;;;;;;10.48;3.97;;;11.40;99.90;;;;;;5106414;28;20026;-77
2022/01/02 08:27:36;;;;;;;12.73;4.45;;;11.50;99.90;;;;;;5095122;28;20096;-78
2022/01/02 08:30:02;;;;;;;8.57;3.33;;;11.50;99.90;;;;;;5097120;28;20628;-79
2022/01/02 08:32:28;;;;;;;11.75;3.28;;;11.50;99.90;;;;;;5098371;28;20074;-78
2022/01/02 08:34:53;;;;;;;10.57;3.90;;;11.50;99.90;;;;;;5107758;28;20043;-78
2022/01/02 08:37:19;;;;;;;5.60;3.08;;;11.50;99.90;;;;;;5111078;28;20073;-77
2022/01/02 08:39:45;;;;;;;13.45;4.00;;;11.50;99.90;;;;;;5076018;28;20025;-78
2022/01/02 08:42:12;;;;;;;8.35;3.60;;;11.60;99.90;;;;;;5074906;28;20021;-78
2022/01/02 08:44:39;;;;;;;9.77;3.20;;;11.60;99.90;;;;;;5110412;28;20089;-78
2022/01/02 08:47:06;;;;;;;11.18;3.53;;;11.50;99.90;;;;;;5114794;28;20813;-79
2022/01/02 08:49:32;;;;;;;10.70;3.88;;;11.60;99.90;;;;;;5115757;28;20452;-78
2022/01/02 08:51:58;;;;;;;8.05;3.40;;;11.60;99.90;;;;;;5115839;28;20315;-79
2022/01/02 08:54:24;;;;;;;10.25;3.15;;;11.60;99.90;;;;;;5115532;28;20042;-79
2022/01/02 08:56:50;;;;;;;10.02;3.38;;;11.70;99.90;;;;;;5116164;28;20028;-79
2022/01/02 08:59:15;;;;;;;8.98;3.22;;;11.70;99.90;;;;;;5115573;28;20030;-79
2022/01/02 09:01:41;;;;;;;6.78;2.97;;;11.70;99.90;;;;;;5110888;28;20792;-77
2022/01/02 09:04:07;;;;;;;12.13;3.38;;;11.70;99.90;;;;;;5104357;28;20107;-79
2022/01/02 09:06:32;;;;;;;11.27;3.00;;;11.80;99.90;;;;;;5089538;28;20363;-79
2022/01/02 09:08:58;;;;;;;9.07;3.08;;;11.80;99.90;;;;;;5100869;28;20408;-79
2022/01/02 09:11:24;;;;;;;11.50;3.00;;;11.80;99.90;;;;;;5108537;28;20035;-79
2022/01/02 09:13:49;;;;;;;8.93;2.72;;;11.90;99.90;;;;;;5096489;28;20103;-78
2022/01/02 09:16:15;;;;;;;10.75;2.90;;;11.90;99.90;;;;;;5074550;28;20025;-79
2022/01/02 09:18:41;;;;;;;7.63;2.85;;;11.90;99.90;;;;;;5106742;28;20020;-79
2022/01/02 09:21:06;;;;;;;9.15;2.95;;;11.90;99.90;;;;;;5096119;28;20024;-80
2022/01/02 09:23:32;;;;;;;9.38;2.90;;;11.90;99.90;;;;;;5090577;28;20035;-80
2022/01/02 09:25:58;;;;;;;10.73;3.60;;;11.90;99.90;;;;;;5115092;28;20428;-79
2022/01/02 09:28:23;;;;;;;7.68;2.70;;;12.00;99.90;;;;;;5083284;28;20039;-80
2022/01/02 09:30:49;;;;;;;10.70;3.97;;;12.00;99.90;;;;;;5094835;28;20024;-80
2022/01/02 09:33:15;;;;;;;8.18;2.97;;;11.90;99.90;;;;;;5090307;28;20048;-80
2022/01/02 09:35:41;;;;;;;6.90;3.13;;;11.90;99.90;;;;;;5114935;28;20079;-79
2022/01/02 09:38:10;;;;;;;11.95;2.75;;;11.90;99.90;;;;;;5102927;28;20025;-79
2022/01/02 09:40:40;;;;;;;10.38;3.00;;;11.90;99.90;;;;;;5063953;28;20035;-80
2022/01/02 09:43:06;;;;;;;10.85;3.47;;;12.00;99.90;;;;;;5097270;28;20019;-78
2022/01/02 09:45:38;;;;;;;7.93;3.20;;;11.90;99.90;;;;;;5104064;28;20359;-80
2022/01/02 09:48:07;;;;;;;;;;;11.90;99.90;;;;;;5108197;28;20098;-79
2022/01/02 09:50:33;;;;;;;8.13;3.47;;;11.90;99.90;;;;;;5101984;28;19958;-79
2022/01/02 09:52:59;;;;;;;8.38;3.45;;;11.80;99.90;;;;;;5081077;28;20476;-79
2022/01/02 09:55:25;;;;;;;9.57;3.33;;;11.80;99.90;;;;;;5108496;28;20036;-79
2022/01/02 09:57:53;;;;;;;7.82;3.40;;;11.90;99.90;;;;;;5102148;28;20028;-80
2022/01/02 10:00:22;;;;;;;5.95;3.55;;;11.90;99.90;;;;;;5081653;28;20030;-80
2022/01/02 10:03:02;;;;;;;6.88;2.80;;;11.90;99.90;;;;;;5083781;28;20478;-80
2022/01/02 10:05:30;;;;;;;5.90;2.90;;;12.00;99.90;;;;;;5108391;28;20069;-80
2022/01/02 10:07:57;;;;;;;7.28;3.60;;;12.10;99.90;;;;;;5113040;28;20089;-80
2022/01/02 10:10:33;;;;;;;9.07;3.53;;;12.10;99.90;;;;;;5098127;28;20023;-80
2022/01/02 10:13:03;;;;;;;7.93;3.30;;;12.20;99.90;;;;;;5086983;28;20020;-80
2022/01/02 10:15:29;;;;;;;9.45;3.92;;;;;;;;;;5099686;28;20414;-79
2022/01/02 10:18:08;;;;;;;8.57;3.55;;;12.30;99.90;;;;;;5093193;28;20028;-78
2022/01/02 10:20:34;;;;;;;7.65;3.33;;;;;;;;;;5104673;28;20032;-78
2022/01/02 10:23:04;;;;;;;6.32;3.20;;;12.40;99.90;;;;;;5096620;28;20126;-79
2022/01/02 10:25:37;;;;;;;9.25;3.80;;;12.40;99.90;;;;;;5083855;28;20351;-80
2022/01/02 10:28:26;;;;;;;9.90;3.92;;;;;;;;;;5091087;28;20077;-82
2022/01/02 10:31:03;;;;;;;8.35;3.22;;;12.40;99.90;;;;;;5075070;28;20489;-79
2022/01/02 10:33:45;;;;;;;6.43;3.35;;;12.40;99.90;;;;;;5073705;28;20400;-81
2022/01/02 10:36:11;;;;;;;12.52;3.95;;;12.40;99.90;;;;;;5038466;28;20390;-78
2022/01/02 10:38:37;;;;;;;16.10;4.75;;;12.50;99.90;;;;;;5072682;28;20036;-78
2022/01/02 10:41:03;;;;;;;15.63;3.80;;;12.50;99.90;;;;;;5072631;28;20083;-77
2022/01/02 10:43:33;;;;;;;11.15;3.85;;;12.60;99.90;;;;;;5072717;28;20543;-78
2022/01/02 10:46:08;;;;;;;7.93;3.17;;;12.60;99.90;;;;;;5072797;28;20467;-79
2022/01/02 10:48:42;;;;;;;6.53;3.20;;;12.60;99.90;;;;;;5072352;28;20028;-78
2022/01/02 10:51:14;;;;;;;8.57;3.67;;;;;;;;;;5072313;28;20029;-77
2022/01/02 10:53:58;;;;;;;9.27;3.05;;;12.70;99.90;;;;;;5102968;28;20036;-78
2022/01/02 10:56:26;;;;;;;8.43;3.47;;;12.60;99.90;;;;;;5076924;28;20543;-79
2022/01/02 10:58:51;;;;;;;9.80;3.60;;;12.60;99.90;;;;;;5092738;28;20043;-79
2022/01/02 11:01:18;;;;;;;10.10;3.58;;;12.50;99.90;;;;;;5093001;28;20032;-79
2022/01/02 11:03:47;;;;;;;13.68;2.92;;;12.60;99.90;;;;;;5103027;28;20028;-79
2022/01/02 11:06:29;;;;;;;17.45;3.67;;;12.70;99.90;;;;;;5107064;28;20028;-78
2022/01/02 11:08:58;;;;;;;12.68;3.33;;;12.60;99.90;;;;;;5110746;28;20504;-78
2022/01/02 11:11:24;;;;;;;16.05;3.92;;;12.70;99.90;;;;;;5107938;28;20393;-80
2022/01/02 11:13:50;;;;;;;8.98;3.15;;;12.60;99.90;;;;;;5110529;28;20040;-79
2022/01/02 11:16:17;;;;;;;7.20;2.72;;;12.60;99.90;;;;;;5099545;28;20434;-79
2022/01/02 11:18:46;;;;;;;8.57;3.45;;;12.70;99.90;;;;;;5099522;28;20032;-79
2022/01/02 11:21:12;;;;;;;13.48;3.33;;;12.60;99.90;;;;;;5077952;28;20027;-79
2022/01/02 11:24:18;;;;;;;13.15;4.05;;;12.70;99.90;;;;;;5096440;28;20030;-80
2022/01/02 11:27:07;;;;;;;10.82;3.45;;;12.60;99.90;;;;;;5078294;28;20024;-79
2022/01/02 11:29:34;;;;;;;13.05;4.45;;;12.50;99.90;;;;;;5096668;28;20020;-81
2022/01/02 11:31:59;;;;;;;12.98;3.40;;;12.50;99.90;;;;;;5110824;28;20040;-81
2022/01/02 11:34:26;;;;;;;8.93;2.65;;;12.60;99.90;;;;;;5098456;28;20034;-81
2022/01/02 11:36:55;;;;;;;11.98;3.53;;;12.50;99.90;;;;;;5116927;28;20031;-80
2022/01/02 11:39:21;;;;;;;13.80;3.50;;;12.50;99.90;;;;;;5100800;28;20063;-80
2022/01/02 11:41:51;;;;;;;9.82;3.50;;;12.40;99.90;;;;;;5096387;28;20059;-81
2022/01/02 11:44:18;;;;;;;13.52;4.53;;;12.40;99.90;;;;;;5096256;28;20031;-80
2022/01/02 11:46:48;;;;;;;11.88;3.67;;;12.50;99.90;;;;;;5096698;28;20020;-81
2022/01/02 11:49:18;;;;;;;9.32;2.97;;;12.40;99.90;;;;;;5096252;28;20028;-80
2022/01/02 11:51:47;;;;;;;12.23;3.33;;;12.50;99.90;;;;;;5096438;28;20016;-81
2022/01/02 11:54:28;;;;;;;13.18;3.55;;;12.60;99.90;;;;;;5096274;28;20039;-80
2022/01/02 11:57:03;;;;;;;15.63;3.22;;;12.60;99.90;;;;;;5096310;28;20107;-80
2022/01/02 11:59:44;;;;;;;11.82;3.05;;;12.70;99.90;;;;;;5096273;28;20090;-79
2022/01/02 12:02:13;;;;;;;9.98;2.90;;;12.80;99.90;;;;;;5095888;28;20028;-78
2022/01/02 12:05:02;;;;;;;11.98;3.03;;;12.80;99.90;;;;;;5096121;28;20114;-80
2022/01/02 12:07:34;;;;;;;15.63;4.18;;;12.80;99.90;;;;;;5095959;28;20036;-80
2022/01/02 12:10:20;;;;;;;10.37;3.30;;;12.90;99.90;;;;;;5094704;28;20392;-80
2022/01/02 12:13:20;;;;;;;13.30;2.95;;;13.00;99.90;;;;;;5095616;28;20262;-81
2022/01/02 12:15:46;;;;;;;17.85;3.83;;;13.20;99.90;;;;;;5095996;28;20032;-81
2022/01/02 12:18:19;;;;;;;13.93;3.42;;;13.00;99.90;;;;;;5095326;28;20039;-80
2022/01/02 12:20:51;;;;;;;13.13;3.00;;;13.00;99.90;;;;;;5095977;28;20400;-77
2022/01/02 12:23:34;;;;;;;17.50;3.55;;;13.00;99.90;;;;;;5096909;28;20077;-80
2022/01/02 12:26:16;;;;;;;11.60;3.10;;;12.90;99.90;;;;;;5106137;28;20016;-80
2022/01/02 12:29:01;;;;;;;17.48;3.05;;;12.90;99.90;;;;;;5108856;28;20023;-80
2022/01/02 12:31:38;;;;;;;16.40;3.05;;;12.90;99.90;;;;;;5115799;28;20363;-77
2022/01/02 12:34:06;;;;;;;19.92;3.78;;;12.80;99.90;;;;;;5115596;28;20032;-81
2022/01/02 12:36:32;;;;;;;18.90;4.18;;;12.80;99.90;;;;;;5099281;28;20032;-79
2022/01/02 12:39:00;;;;;;;17.80;3.50;;;12.70;99.90;;;;;;5095575;28;20074;-79
2022/01/02 12:41:28;;;;;;;23.13;3.08;;;;;;;;;;5095122;28;20114;-78
2022/01/02 12:44:02;;;;;;;12.75;3.42;;;12.60;99.90;;;;;;5076970;28;20024;-79
2022/01/02 12:46:41;;;;;;;13.95;2.83;;;12.70;99.90;;;;;;5095466;28;20034;-78
2022/01/02 12:49:08;;;;;;;14.45;2.50;;;12.80;99.90;;;;;;5094687;28;20018;-79
2022/01/02 12:51:35;;;;;;;15.65;3.47;;;12.80;99.90;;;;;;5094676;28;20020;-78
2022/01/02 12:54:10;;;;;;;14.65;3.25;;;12.80;99.90;;;;;;5094730;28;20112;-81
2022/01/02 12:56:51;;;;;;;24.20;3.75;;;12.80;99.90;;;;;;5115122;28;20020;-82
2022/01/02 12:59:36;;;;;;;13.15;2.67;;;12.80;99.90;;;;;;5115199;28;20030;-79
2022/01/02 13:02:10;;;;;;;13.52;2.70;;;12.90;99.90;;;;;;5114878;28;20135;-78
2022/01/02 13:04:39;;;;;;;14.43;2.67;;;12.80;99.90;;;;;;5114862;28;20510;-80
2022/01/02 13:07:14;;;;;;;16.73;2.80;;;12.90;99.90;;;;;;5096377;28;20016;-78
2022/01/02 13:09:58;;;;;;;16.05;2.60;;;13.00;99.90;;;;;;5108682;28;20027;-80
2022/01/02 13:12:36;;;;;;;18.40;3.22;;;13.00;99.90;;;;;;5094446;28;20066;-80
2022/01/02 13:15:07;;;;;;;20.55;3.10;;;12.90;99.90;;;;;;5076351;28;20398;-79